Terminal Aerodrome Forecast
Issued by NWS Twin Cities, MN

Home | Current Version | Previous Version | Graphics & Text | Print | Product List | Glossary On
Versions: 1 2 3 4 5 6 7 8 9 10 11 12 13 14 15 16 17 18 19 20 21 22 23 24 25 26 27 28 29 30 31 32 33 34 35 36 37
000
FTUS43 KMPX 292200 AAB
TAFMSP
TAF AMD
KMSP 292232Z 2923/3024 31010KT P6SM -SHRA VCTS SCT020CB BKN040
      OVC090
      TEMPO 2923/3001 2SM +TSRA BKN020CB
     FM300100 32004KT 6SM -SHRA BKN025
     FM300300 32004KT P6SM SCT020 BKN090
     FM300600 35005KT P6SM SCT006 OVC012
     FM300900 35005KT 6SM BR OVC005
     FM301500 36006KT P6SM BKN010 OVC020
     FM301800 36008KT P6SM SCT025=

USA.gov is the U.S. government's official web portal to all federal, state and local government web resources and services.